createdAt,value
2019-05-15T00:00:09.754Z,1.57
2019-05-15T00:02:38.957Z,1.40
2019-05-15T00:05:09.113Z,1.95
2019-05-15T00:07:39.214Z,2.02
2019-05-15T00:10:08.896Z,2.10
2019-05-15T00:12:39.494Z,2.12
2019-05-15T00:15:09.365Z,1.80
2019-05-15T00:17:39.429Z,1.80
2019-05-15T00:20:09.966Z,2.00
2019-05-15T00:22:38.862Z,2.05
2019-05-15T00:25:09.330Z,2.05
2019-05-15T00:27:39.218Z,1.65
2019-05-15T00:30:08.910Z,1.72
2019-05-15T00:32:39.300Z,1.90
2019-05-15T00:35:09.362Z,1.98
2019-05-15T00:37:38.674Z,1.45
2019-05-15T00:40:08.732Z,1.90
2019-05-15T00:42:38.485Z,1.85
2019-05-15T00:45:09.531Z,2.35
2019-05-15T00:47:39.728Z,2.25
2019-05-15T00:50:08.911Z,2.22
2019-05-15T00:52:39.158Z,1.92
2019-05-15T00:55:08.627Z,1.85
2019-05-15T00:57:39.266Z,1.90
2019-05-15T01:00:08.921Z,2.00
2019-05-15T01:02:38.762Z,1.98
2019-05-15T01:05:08.095Z,2.75
2019-05-15T01:07:38.952Z,2.35
2019-05-15T01:10:10.152Z,2.30
2019-05-15T01:12:39.723Z,2.22
2019-05-15T01:15:09.258Z,2.37
2019-05-15T01:17:39.007Z,2.70
2019-05-15T01:20:08.491Z,2.72
2019-05-15T01:22:39.505Z,2.95
2019-05-15T01:25:08.579Z,2.77
2019-05-15T01:27:38.742Z,3.27
2019-05-15T01:30:09.040Z,4.05
2019-05-15T01:32:39.409Z,3.40
2019-05-15T01:35:09.445Z,4.30
2019-05-15T01:37:39.407Z,4.15
2019-05-15T01:40:08.827Z,4.25
2019-05-15T01:42:38.576Z,4.40
2019-05-15T01:45:08.658Z,3.80
2019-05-15T01:47:38.865Z,4.50
2019-05-15T01:50:09.240Z,5.17
2019-05-15T01:52:38.938Z,3.35
2019-05-15T01:55:09.101Z,3.65
2019-05-15T01:57:38.372Z,3.47
2019-05-15T02:00:08.708Z,3.40
2019-05-15T02:02:39.191Z,3.75
2019-05-15T02:05:08.454Z,4.00
2019-05-15T02:07:39.066Z,3.17
2019-05-15T02:10:09.232Z,3.60
2019-05-15T02:12:38.702Z,2.98
2019-05-15T02:15:08.519Z,3.98
2019-05-15T02:17:39.312Z,3.00
2019-05-15T02:20:08.501Z,3.12
2019-05-15T02:22:41.997Z,3.22
2019-05-15T02:25:08.566Z,3.45
2019-05-15T02:27:39.181Z,3.08
2019-05-15T02:30:18.273Z,3.47
2019-05-15T02:32:40.189Z,3.85
2019-05-15T02:35:10.060Z,3.65
2019-05-15T02:37:40.751Z,3.90
2019-05-15T02:40:09.959Z,3.52
2019-05-15T02:42:39.880Z,3.05
2019-05-15T02:45:09.978Z,4.15
2019-05-15T02:47:39.453Z,3.62
2019-05-15T02:50:10.839Z,2.92
2019-05-15T02:52:44.560Z,3.72
2019-05-15T02:55:09.829Z,3.47
2019-05-15T02:57:39.362Z,4.33
2019-05-15T03:00:10.861Z,4.42
2019-05-15T03:02:41.273Z,3.62
2019-05-15T03:05:09.215Z,3.60
2019-05-15T03:07:40.586Z,3.80
2019-05-15T03:10:09.348Z,3.67
2019-05-15T03:12:40.703Z,3.70
2019-05-15T03:15:09.606Z,4.30
2019-05-15T03:17:40.315Z,4.55
2019-05-15T03:20:10.351Z,3.77
2019-05-15T03:22:40.112Z,3.15
2019-05-15T03:25:10.648Z,3.83
2019-05-15T03:27:39.694Z,3.92
2019-05-15T03:30:13.667Z,4.20
2019-05-15T03:32:50.713Z,3.60
2019-05-15T03:35:14.217Z,3.67
2019-05-15T03:37:40.262Z,3.90
2019-05-15T03:40:10.425Z,3.22
2019-05-15T03:42:39.713Z,3.40
2019-05-15T03:45:10.340Z,3.77
2019-05-15T03:47:40.071Z,2.95
2019-05-15T03:50:09.786Z,3.60
2019-05-15T03:52:39.434Z,2.80
2019-05-15T03:55:10.861Z,3.10
2019-05-15T03:57:40.387Z,2.80
2019-05-15T04:00:09.825Z,3.00
2019-05-15T04:02:39.522Z,2.55
2019-05-15T04:05:11.619Z,3.05
2019-05-15T04:07:39.840Z,2.42
2019-05-15T04:10:09.834Z,2.95
2019-05-15T04:12:40.544Z,3.62
2019-05-15T04:15:09.981Z,2.83
2019-05-15T04:17:40.692Z,3.77
2019-05-15T04:20:10.274Z,3.30
2019-05-15T04:22:40.113Z,3.83
2019-05-15T04:25:09.894Z,3.20
2019-05-15T04:27:39.938Z,2.62
2019-05-15T04:30:10.639Z,2.87
2019-05-15T04:32:40.140Z,3.50
2019-05-15T04:35:09.440Z,3.15
2019-05-15T04:37:40.831Z,3.45
2019-05-15T04:40:09.994Z,3.10
2019-05-15T04:42:39.860Z,2.83
2019-05-15T04:45:09.954Z,2.90
2019-05-15T04:47:39.887Z,3.35
2019-05-15T04:50:09.211Z,3.02
2019-05-15T04:52:39.447Z,3.12
2019-05-15T04:55:10.210Z,2.92
2019-05-15T04:57:40.059Z,2.90
2019-05-15T05:00:09.779Z,3.37
2019-05-15T05:02:40.314Z,3.70
2019-05-15T05:05:10.420Z,4.97
2019-05-15T05:07:39.629Z,3.85
2019-05-15T05:10:09.509Z,3.95
2019-05-15T05:12:41.668Z,3.27
2019-05-15T05:15:08.641Z,2.62
2019-05-15T05:17:39.280Z,2.50
2019-05-15T05:20:08.053Z,2.90
2019-05-15T05:22:39.134Z,2.22
2019-05-15T05:25:08.150Z,2.22
2019-05-15T05:27:38.360Z,2.02
2019-05-15T05:30:08.459Z,2.40
2019-05-15T05:32:39.101Z,2.22
2019-05-15T05:35:08.444Z,2.83
2019-05-15T05:37:39.043Z,2.25
2019-05-15T05:40:08.223Z,2.50
2019-05-15T05:42:38.957Z,2.35
2019-05-15T05:45:09.246Z,2.22
2019-05-15T05:47:38.171Z,2.27
2019-05-15T05:50:08.164Z,1.92
2019-05-15T05:52:39.006Z,1.98
2019-05-15T05:55:08.782Z,2.25
2019-05-15T05:57:38.520Z,2.25
2019-05-15T06:00:09.260Z,1.90
2019-05-15T06:02:46.916Z,2.08
2019-05-15T06:05:07.918Z,2.12
2019-05-15T06:07:38.806Z,2.47
2019-05-15T06:10:09.001Z,2.27
2019-05-15T06:12:38.998Z,2.42
2019-05-15T06:15:08.913Z,2.15
2019-05-15T06:17:39.146Z,2.55
2019-05-15T06:20:08.099Z,1.90
2019-05-15T06:22:38.795Z,2.80
2019-05-15T06:25:10.719Z,2.75
2019-05-15T06:27:38.685Z,2.50
2019-05-15T06:30:08.706Z,2.17
2019-05-15T06:32:39.471Z,2.50
2019-05-15T06:35:08.666Z,2.12
2019-05-15T06:37:39.252Z,2.22
2019-05-15T06:40:08.471Z,2.22
2019-05-15T06:42:39.246Z,1.98
2019-05-15T06:45:08.109Z,2.70
2019-05-15T06:47:36.479Z,2.12
2019-05-15T06:50:08.410Z,2.10
2019-05-15T06:52:38.013Z,2.20
2019-05-15T06:55:08.922Z,2.30
2019-05-15T06:57:39.381Z,1.80
2019-05-15T07:00:08.440Z,1.77
2019-05-15T07:02:38.158Z,2.22
2019-05-15T07:05:07.863Z,1.90
2019-05-15T07:07:38.698Z,2.17
2019-05-15T07:10:09.124Z,1.87
2019-05-15T07:12:39.205Z,2.37
2019-05-15T07:15:09.037Z,2.10
2019-05-15T07:17:39.376Z,1.95
2019-05-15T07:20:08.654Z,1.90
2019-05-15T07:22:39.177Z,1.87
2019-05-15T07:25:08.925Z,2.12
2019-05-15T07:27:39.017Z,1.92
2019-05-15T07:30:07.978Z,1.87
2019-05-15T07:32:36.257Z,2.15
2019-05-15T07:35:08.435Z,2.12
2019-05-15T07:37:38.795Z,2.30
2019-05-15T07:40:08.481Z,1.90
2019-05-15T07:42:38.865Z,1.95
2019-05-15T07:45:08.890Z,2.58
2019-05-15T07:47:38.548Z,1.75
2019-05-15T07:50:08.671Z,2.12
2019-05-15T07:52:39.425Z,2.10
2019-05-15T07:55:09.752Z,1.67
2019-05-15T07:57:39.394Z,2.00
2019-05-15T08:00:10.566Z,1.90
2019-05-15T08:02:39.002Z,2.08
2019-05-15T08:05:08.806Z,2.30
2019-05-15T08:07:39.347Z,2.10
2019-05-15T08:10:08.746Z,2.00
2019-05-15T08:12:39.148Z,2.50
2019-05-15T08:15:08.944Z,2.25
2019-05-15T08:17:56.036Z,2.08
2019-05-15T08:20:09.161Z,2.25
2019-05-15T08:22:38.324Z,2.17
2019-05-15T08:25:11.356Z,1.95
2019-05-15T08:27:38.254Z,2.15
2019-05-15T08:30:08.917Z,2.33
2019-05-15T08:32:38.891Z,2.00
2019-05-15T08:35:08.506Z,2.02
2019-05-15T08:37:38.440Z,2.02
2019-05-15T08:40:08.546Z,2.00
2019-05-15T08:42:41.700Z,1.98
2019-05-15T08:45:09.237Z,2.30
2019-05-15T08:47:38.574Z,2.10
2019-05-15T08:50:08.870Z,2.37
2019-05-15T08:52:39.423Z,1.80
2019-05-15T08:55:08.580Z,2.30
2019-05-15T08:57:38.318Z,2.08
2019-05-15T09:00:09.674Z,2.10
2019-05-15T09:02:38.288Z,2.10
2019-05-15T09:05:08.483Z,2.15
2019-05-15T09:07:38.417Z,2.27
2019-05-15T09:10:09.029Z,2.15
2019-05-15T09:12:38.816Z,1.65
2019-05-15T09:15:08.472Z,2.10
2019-05-15T09:17:39.762Z,2.12
2019-05-15T09:20:08.155Z,2.60
2019-05-15T09:22:51.276Z,1.85
2019-05-15T09:25:28.769Z,2.22
2019-05-15T09:27:57.963Z,2.17
2019-05-15T09:30:28.554Z,1.92
2019-05-15T09:32:58.723Z,2.42
2019-05-15T09:35:27.812Z,1.90
2019-05-15T09:37:58.319Z,1.85
2019-05-15T09:40:41.743Z,1.80
2019-05-15T09:42:57.828Z,2.27
2019-05-15T09:45:28.526Z,2.58
2019-05-15T09:47:58.635Z,2.02
2019-05-15T09:50:28.197Z,1.77
2019-05-15T09:52:58.839Z,2.30
2019-05-15T09:55:28.550Z,1.72
2019-05-15T09:57:59.049Z,1.92
2019-05-15T10:00:29.240Z,1.95
2019-05-15T10:02:57.743Z,1.67
2019-05-15T10:05:28.009Z,2.25
2019-05-15T10:07:56.171Z,2.00
2019-05-15T10:10:24.502Z,2.10
2019-05-15T10:12:52.895Z,1.90
2019-05-15T10:15:22.413Z,1.87
2019-05-15T10:17:51.346Z,2.00
2019-05-15T10:20:20.015Z,2.15
2019-05-15T10:22:48.531Z,2.45
2019-05-15T10:25:19.009Z,1.95
2019-05-15T10:27:48.842Z,2.33
2019-05-15T10:30:18.876Z,2.33
2019-05-15T10:32:48.757Z,1.90
2019-05-15T10:35:25.476Z,2.30
2019-05-15T10:37:48.788Z,2.40
2019-05-15T10:40:20.464Z,2.50
2019-05-15T10:42:49.474Z,2.33
2019-05-15T10:45:19.296Z,2.33
2019-05-15T10:47:49.566Z,2.50
2019-05-15T10:50:19.060Z,2.52
2019-05-15T10:52:48.910Z,2.20
2019-05-15T10:55:18.864Z,1.90
2019-05-15T10:57:47.707Z,2.40
2019-05-15T11:00:19.238Z,2.20
2019-05-15T11:02:48.759Z,2.25
2019-05-15T11:05:18.016Z,2.25
2019-05-15T11:07:48.317Z,2.40
2019-05-15T11:10:18.560Z,2.20
2019-05-15T11:12:47.455Z,2.22
2019-05-15T11:15:18.473Z,2.77
2019-05-15T11:17:48.982Z,2.65
2019-05-15T11:20:18.629Z,2.90
2019-05-15T11:22:49.646Z,3.05
2019-05-15T11:25:16.529Z,2.77
2019-05-15T11:27:44.892Z,2.30
2019-05-15T11:30:13.587Z,2.80
2019-05-15T11:32:41.923Z,2.83
2019-05-15T11:35:11.893Z,3.37
2019-05-15T11:37:45.795Z,2.98
2019-05-15T11:40:11.318Z,3.15
2019-05-15T11:42:39.988Z,2.75
2019-05-15T11:45:09.894Z,2.62
2019-05-15T11:47:39.588Z,2.98
2019-05-15T11:50:09.338Z,2.87
2019-05-15T11:52:40.438Z,3.65
2019-05-15T11:55:08.468Z,2.92
2019-05-15T11:57:43.518Z,2.90
2019-05-15T12:00:14.596Z,2.72
2019-05-15T12:02:38.394Z,3.25
2019-05-15T12:05:09.296Z,3.37
2019-05-15T12:07:38.174Z,3.05
2019-05-15T12:10:10.404Z,3.80
2019-05-15T12:12:38.570Z,3.17
2019-05-15T12:15:07.554Z,3.10
2019-05-15T12:17:35.927Z,2.90
2019-05-15T12:20:06.793Z,3.40
2019-05-15T12:22:35.051Z,2.83
2019-05-15T12:25:04.242Z,2.87
2019-05-15T12:27:32.524Z,3.02
2019-05-15T12:30:00.902Z,3.00
2019-05-15T12:32:33.290Z,2.95
2019-05-15T12:35:00.043Z,3.72
2019-05-15T12:37:28.700Z,3.27
2019-05-15T12:59:58.240Z,3.22
2019-05-15T13:02:28.405Z,3.22
2019-05-15T13:04:58.438Z,3.45
2019-05-15T13:07:28.432Z,2.67
2019-05-15T13:09:57.991Z,3.65
2019-05-15T13:12:28.589Z,3.30
2019-05-15T13:14:58.890Z,3.55
2019-05-15T13:17:28.947Z,3.17
2019-05-15T13:19:58.675Z,4.08
2019-05-15T13:22:28.131Z,4.20
2019-05-15T13:24:58.699Z,3.75
2019-05-15T13:27:26.677Z,3.70
2019-05-15T13:29:58.273Z,4.00
2019-05-15T13:32:28.483Z,4.08
2019-05-15T13:34:59.485Z,2.67
2019-05-15T13:37:30.601Z,3.22
2019-05-15T13:39:58.692Z,3.10
2019-05-15T13:42:28.037Z,3.70
2019-05-15T13:44:58.673Z,3.58
2019-05-15T13:47:28.166Z,3.87
2019-05-15T13:49:58.489Z,3.25
2019-05-15T13:52:28.291Z,3.05
2019-05-15T13:54:56.976Z,3.33
2019-05-15T13:57:25.432Z,3.42
2019-05-15T13:59:54.030Z,3.35
2019-05-15T14:02:22.926Z,3.42
2019-05-15T14:04:51.381Z,3.67
2019-05-15T14:07:21.360Z,3.30
2019-05-15T14:09:51.686Z,3.33
2019-05-15T14:12:22.066Z,4.33
2019-05-15T14:14:50.740Z,3.75
2019-05-15T14:17:19.543Z,3.85
2019-05-15T14:19:48.577Z,4.15
2019-05-15T14:22:18.706Z,2.90
2019-05-15T14:24:48.878Z,3.67
2019-05-15T14:27:19.440Z,3.90
2019-05-15T14:29:49.096Z,3.92
2019-05-15T14:32:32.809Z,3.12
2019-05-15T14:34:51.157Z,3.90
2019-05-15T14:37:18.915Z,3.95
2019-05-15T14:39:52.024Z,3.60
2019-05-15T14:42:18.653Z,2.87
2019-05-15T14:44:48.494Z,3.00
2019-05-15T14:47:19.254Z,2.72
2019-05-15T14:49:49.488Z,3.17
2019-05-15T14:52:17.955Z,3.35
2019-05-15T14:54:48.962Z,3.62
2019-05-15T14:57:19.918Z,3.55
2019-05-15T14:59:49.445Z,2.67
2019-05-15T15:02:18.978Z,3.37
2019-05-15T15:04:48.565Z,3.40
2019-05-15T15:07:18.874Z,3.65
2019-05-15T15:09:47.753Z,3.50
2019-05-15T15:12:18.750Z,3.20
2019-05-15T15:14:48.531Z,3.15
2019-05-15T15:17:19.151Z,3.42
2019-05-15T15:19:51.600Z,3.70
2019-05-15T15:22:17.393Z,3.75
2019-05-15T15:24:48.116Z,3.92
2019-05-15T15:27:15.797Z,4.00
2019-05-15T15:29:44.114Z,4.00
2019-05-15T15:32:12.549Z,4.20
2019-05-15T15:34:40.920Z,3.30
2019-05-15T15:37:09.228Z,3.47
2019-05-15T15:39:38.628Z,3.42
2019-05-15T15:42:08.696Z,3.72
2019-05-15T15:44:39.069Z,3.35
2019-05-15T15:47:08.608Z,3.60
2019-05-15T15:49:38.759Z,3.33
2019-05-15T15:52:08.768Z,3.27
2019-05-15T15:54:39.541Z,3.50
2019-05-15T15:57:08.369Z,2.95
2019-05-15T15:59:38.687Z,3.72
2019-05-15T16:02:08.805Z,3.70
2019-05-15T16:04:39.298Z,4.20
2019-05-15T16:07:09.765Z,3.55
2019-05-15T16:09:38.829Z,4.40
2019-05-15T16:12:09.720Z,4.22
2019-05-15T16:14:38.154Z,4.85
2019-05-15T16:17:08.610Z,3.42
2019-05-15T16:19:38.452Z,3.02
2019-05-15T16:22:08.844Z,3.60
2019-05-15T16:24:38.605Z,3.42
2019-05-15T16:27:09.667Z,3.35
2019-05-15T16:29:39.229Z,3.85
2019-05-15T16:32:08.754Z,3.80
2019-05-15T16:34:39.397Z,3.62
2019-05-15T16:37:08.862Z,3.52
2019-05-15T16:39:38.168Z,3.50
2019-05-15T16:42:06.709Z,3.27
2019-05-15T16:44:35.067Z,3.92
2019-05-15T16:47:03.377Z,3.33
2019-05-15T16:49:31.690Z,4.45
2019-05-15T16:52:01.035Z,4.25
2019-05-15T16:54:29.338Z,3.47
2019-05-15T16:56:59.513Z,3.60
2019-05-15T16:59:30.008Z,3.37
2019-05-15T17:01:57.524Z,4.42
2019-05-15T17:04:25.881Z,4.20
2019-05-15T17:06:54.257Z,3.98
2019-05-15T17:09:22.606Z,4.15
2019-05-15T17:11:51.018Z,3.62
2019-05-15T17:14:20.070Z,4.35
2019-05-15T17:16:48.363Z,4.10
2019-05-15T17:19:18.050Z,3.87
2019-05-15T17:21:48.167Z,4.17
2019-05-15T17:24:16.302Z,3.08
2019-05-15T17:26:44.725Z,4.03
2019-05-15T17:29:13.076Z,3.70
2019-05-15T17:31:41.704Z,3.80
2019-05-15T17:34:09.966Z,3.75
2019-05-15T17:36:38.423Z,4.08
2019-05-15T17:39:08.862Z,3.80
2019-05-15T17:41:39.104Z,3.90
2019-05-15T17:44:07.349Z,3.52
2019-05-15T17:46:38.294Z,3.95
2019-05-15T17:49:14.313Z,5.10
2019-05-15T17:51:35.721Z,5.22
2019-05-15T17:54:04.179Z,3.85
2019-05-15T17:56:33.594Z,4.42
2019-05-15T17:59:01.955Z,4.33
2019-05-15T18:01:31.044Z,4.20
2019-05-15T18:03:59.680Z,3.98
2019-05-15T18:06:29.191Z,3.50
2019-05-15T18:08:59.315Z,3.40
2019-05-15T18:11:27.986Z,2.77
2019-05-15T18:13:58.225Z,3.83
2019-05-15T18:16:26.354Z,3.35
2019-05-15T18:18:54.646Z,3.37
2019-05-15T18:21:23.166Z,3.55
2019-05-15T18:23:51.620Z,3.67
2019-05-15T18:26:19.878Z,3.52
2019-05-15T18:28:48.903Z,3.70
2019-05-15T18:31:18.168Z,4.28
2019-05-15T18:33:53.767Z,4.53
2019-05-15T18:36:16.558Z,4.17
2019-05-15T18:38:44.945Z,3.77
2019-05-15T18:41:13.345Z,4.10
2019-05-15T18:43:42.940Z,5.15
2019-05-15T18:46:11.235Z,4.08
2019-05-15T18:48:39.584Z,4.50
2019-05-15T18:51:08.228Z,3.90
2019-05-15T18:53:38.756Z,4.75
2019-05-15T18:56:09.061Z,5.22
2019-05-15T18:58:38.181Z,5.05
2019-05-15T19:01:09.092Z,4.58
2019-05-15T19:03:38.414Z,8.83
2019-05-15T19:06:08.762Z,6.40
2019-05-15T19:08:38.617Z,6.20
2019-05-15T19:11:07.491Z,6.22
2019-05-15T19:13:35.848Z,5.87
2019-05-15T19:16:04.341Z,5.35
2019-05-15T19:18:32.824Z,4.90
2019-05-15T19:21:01.221Z,5.85
2019-05-15T19:23:29.590Z,5.75
2019-05-15T19:25:58.106Z,6.08
2019-05-15T19:28:28.622Z,6.30
2019-05-15T19:30:58.476Z,6.40
2019-05-15T19:33:34.281Z,6.72
2019-05-15T19:35:56.198Z,6.67
2019-05-15T19:38:24.686Z,7.00
2019-05-15T19:40:53.007Z,7.70
2019-05-15T19:43:21.413Z,7.15
2019-05-15T19:45:49.720Z,6.72
2019-05-15T19:48:20.024Z,6.87
2019-05-15T19:50:48.209Z,7.50
2019-05-15T19:53:18.856Z,5.95
2019-05-15T19:55:48.361Z,5.78
2019-05-15T19:58:18.300Z,6.80
2019-05-15T20:00:48.148Z,7.33
2019-05-15T20:03:17.885Z,7.12
2019-05-15T20:05:48.463Z,9.40
2019-05-15T20:08:18.487Z,7.08
2019-05-15T20:10:47.917Z,8.18
2019-05-15T20:13:18.303Z,7.90
2019-05-15T20:15:48.552Z,7.08
2019-05-15T20:18:18.382Z,7.17
2019-05-15T20:20:47.796Z,6.42
2019-05-15T20:23:18.269Z,6.75
2019-05-15T20:25:46.380Z,8.98
2019-05-15T20:28:14.663Z,7.45
2019-05-15T20:30:43.151Z,8.23
2019-05-15T20:33:11.811Z,8.48
2019-05-15T20:35:40.174Z,8.78
2019-05-15T20:38:08.589Z,9.55
2019-05-15T20:40:36.970Z,11.18
2019-05-15T20:43:05.364Z,11.63
2019-05-15T20:45:33.829Z,10.32
2019-05-15T20:48:02.093Z,9.60
2019-05-15T20:50:30.500Z,10.65
2019-05-15T20:52:59.105Z,10.72
2019-05-15T20:55:27.624Z,11.45
2019-05-15T20:57:56.084Z,10.95
2019-05-15T21:00:24.460Z,9.95
2019-05-15T21:02:52.915Z,9.78
2019-05-15T21:05:21.268Z,10.65
2019-05-15T21:07:49.566Z,10.35
2019-05-15T21:10:21.096Z,11.05
2019-05-15T21:12:48.738Z,10.18
2019-05-15T21:15:21.410Z,8.95
2019-05-15T21:17:57.661Z,10.30
2019-05-15T21:20:18.300Z,9.38
2019-05-15T21:22:49.066Z,11.83
2019-05-15T21:25:19.111Z,9.80
2019-05-15T21:27:48.858Z,13.65
2019-05-15T21:30:18.929Z,11.97
2019-05-15T21:32:49.172Z,9.95
2019-05-15T21:35:17.974Z,13.32
2019-05-15T21:37:48.639Z,11.63
2019-05-15T21:40:16.601Z,11.28
2019-05-15T21:42:45.377Z,12.18
2019-05-15T21:45:14.812Z,12.18
2019-05-15T21:47:43.385Z,11.40
2019-05-15T21:50:12.056Z,10.03
2019-05-15T21:52:40.506Z,10.23
2019-05-15T21:55:09.641Z,11.63
2019-05-15T21:57:40.161Z,10.35
2019-05-15T22:00:17.904Z,9.25
2019-05-15T22:02:49.108Z,11.18
2019-05-15T22:05:18.458Z,10.72
2019-05-15T22:07:47.786Z,10.00
2019-05-15T22:10:19.318Z,10.30
2019-05-15T22:12:48.272Z,11.05
2019-05-15T22:15:18.951Z,10.95
2019-05-15T22:17:49.376Z,10.85
2019-05-15T22:20:16.962Z,9.45
2019-05-15T22:22:45.297Z,11.48
2019-05-15T22:25:13.957Z,10.72
2019-05-15T22:27:42.198Z,10.72
2019-05-15T22:30:12.024Z,9.25
2019-05-15T22:32:41.810Z,11.55
2019-05-15T22:35:14.058Z,9.15
2019-05-15T22:37:41.537Z,8.83
2019-05-15T22:40:10.230Z,8.28
2019-05-15T22:42:39.210Z,8.78
2019-05-15T22:45:08.897Z,9.55
2019-05-15T22:47:38.997Z,8.30
2019-05-15T22:50:08.510Z,9.83
2019-05-15T22:52:38.982Z,9.95
2019-05-15T22:55:07.427Z,8.00
2019-05-15T22:57:35.853Z,8.75
2019-05-15T23:00:05.110Z,9.20
2019-05-15T23:02:35.044Z,7.92
2019-05-15T23:05:04.423Z,8.33
2019-05-15T23:07:32.696Z,9.95
2019-05-15T23:10:01.348Z,10.30
2019-05-15T23:12:29.729Z,9.63
2019-05-15T23:14:58.166Z,10.10
2019-05-15T23:17:27.782Z,9.43
2019-05-15T23:19:58.182Z,8.68
2019-05-15T23:22:27.927Z,8.93
2019-05-15T23:24:58.388Z,8.15
2019-05-15T23:27:28.615Z,11.50
2019-05-15T23:29:58.185Z,7.83
2019-05-15T23:32:28.752Z,8.38
2019-05-15T23:34:58.428Z,9.43
2019-05-15T23:37:28.081Z,8.05
2019-05-15T23:39:57.944Z,9.28
2019-05-15T23:42:28.995Z,8.53
2019-05-15T23:44:56.444Z,8.10
2019-05-15T23:47:24.743Z,7.67
2019-05-15T23:49:53.111Z,9.45
2019-05-15T23:52:22.492Z,9.80
2019-05-15T23:54:50.883Z,9.05
2019-05-15T23:57:19.273Z,9.10
2019-05-15T23:59:47.802Z,9.53
